Time;durP1;ratioP1;P1;durP2;ratioP2;P2;SDS_P1;SDS_P2;PMS_P1;PMS_P2;Temp;Humidity;BMP_temperature;BMP_pressure;BME280_temperature;BME280_humidity;BME280_pressure;Samples;Min_cycle;Max_cycle;Signal;HPM_P1;HPM_P2
2022/07/27 00:02:17;;;;;;;1.13;0.70;;;27.40;48.70;;;;;;5033077;28;20021;-43
2022/07/27 00:04:42;;;;;;;1.42;0.80;;;27.40;48.60;;;;;;5052215;28;20029;-44
2022/07/27 00:07:08;;;;;;;1.98;0.85;;;27.40;48.70;;;;;;5050852;28;20028;-46
2022/07/27 00:09:33;;;;;;;0.77;0.70;;;27.40;48.60;;;;;;5051457;28;20116;-45
2022/07/27 00:11:59;;;;;;;1.42;0.90;;;27.40;48.60;;;;;;5053404;28;20029;-45
2022/07/27 00:14:25;;;;;;;2.00;1.20;;;27.40;48.60;;;;;;5050951;28;20036;-45
2022/07/27 00:16:50;;;;;;;0.80;0.70;;;27.40;48.70;;;;;;5051642;28;20063;-44
2022/07/27 00:19:16;;;;;;;2.35;1.00;;;27.40;48.60;;;;;;4999427;28;20041;-43
2022/07/27 00:21:41;;;;;;;0.90;0.80;;;27.40;48.60;;;;;;5052707;28;20029;-44
2022/07/27 00:24:08;;;;;;;1.80;1.20;;;27.40;48.60;;;;;;5052904;28;20052;-43
2022/07/27 00:26:33;;;;;;;1.40;0.70;;;27.40;48.60;;;;;;5052905;28;20629;-45
2022/07/27 00:28:59;;;;;;;1.92;0.82;;;27.40;48.60;;;;;;5046609;28;20021;-44
2022/07/27 00:31:25;;;;;;;1.33;0.90;;;27.40;48.60;;;;;;5052090;28;20098;-45
2022/07/27 00:33:50;;;;;;;0.88;0.80;;;27.40;48.40;;;;;;5052512;28;20394;-44
2022/07/27 00:36:16;;;;;;;1.02;0.80;;;27.40;48.30;;;;;;5047817;28;20033;-44
2022/07/27 00:38:41;;;;;;;1.92;0.85;;;27.40;48.40;;;;;;5034475;28;20029;-44
2022/07/27 00:41:07;;;;;;;0.90;0.80;;;27.40;48.50;;;;;;5052289;28;20032;-45
2022/07/27 00:43:49;;;;;;;1.20;0.93;;;27.40;48.60;;;;;;5051639;28;20592;-43
2022/07/27 00:46:14;;;;;;;2.00;0.85;;;27.40;48.60;;;;;;5050022;28;20033;-54
2022/07/27 00:48:40;;;;;;;1.55;0.95;;;27.40;48.40;;;;;;5051964;28;20025;-43
2022/07/27 00:51:06;;;;;;;1.92;0.90;;;27.40;48.40;;;;;;5033849;28;20029;-43
2022/07/27 00:53:31;;;;;;;1.00;0.80;;;27.40;48.30;;;;;;5049505;28;20033;-44
2022/07/27 00:55:58;;;;;;;1.75;1.02;;;27.40;48.30;;;;;;5050670;28;20033;-44
2022/07/27 00:58:25;;;;;;;2.05;1.15;;;27.40;48.30;;;;;;5045595;28;20037;-43
2022/07/27 01:00:51;;;;;;;3.63;0.90;;;27.40;48.30;;;;;;5051397;28;20037;-43
2022/07/27 01:03:17;;;;;;;1.45;0.80;;;27.40;48.30;;;;;;5033141;28;20390;-52
2022/07/27 01:05:43;;;;;;;1.13;0.90;;;27.40;48.20;;;;;;5033060;28;20048;-43
2022/07/27 01:08:11;;;;;;;1.58;0.82;;;27.40;48.30;;;;;;5051033;28;20405;-44
2022/07/27 01:10:38;;;;;;;1.67;1.08;;;27.40;48.20;;;;;;5034396;28;20029;-43
2022/07/27 01:13:03;;;;;;;2.08;0.90;;;27.40;48.20;;;;;;5051758;28;20033;-45
2022/07/27 01:15:30;;;;;;;1.83;0.80;;;27.40;48.20;;;;;;5049860;28;20033;-44
2022/07/27 01:17:56;;;;;;;2.47;1.05;;;27.40;48.20;;;;;;5052028;28;20170;-44
2022/07/27 01:20:22;;;;;;;2.33;0.90;;;27.40;48.20;;;;;;5050525;28;20124;-43
2022/07/27 01:22:47;;;;;;;0.82;0.75;;;27.40;48.10;;;;;;5051802;28;20241;-43
2022/07/27 01:25:13;;;;;;;1.10;0.90;;;27.30;47.90;;;;;;5050621;28;20027;-49
2022/07/27 01:27:39;;;;;;;1.15;0.80;;;27.30;48.00;;;;;;5055430;28;20064;-44
2022/07/27 01:32:49;;;;;;;3.88;1.02;;;27.30;47.70;;;;;;5051580;28;20028;-43
2022/07/27 01:35:15;;;;;;;1.70;0.90;;;27.30;48.60;;;;;;5049522;28;20474;-53
2022/07/27 01:37:41;;;;;;;1.52;0.95;;;27.40;47.90;;;;;;5050906;28;20037;-44
2022/07/27 01:40:07;;;;;;;2.75;1.17;;;27.30;47.90;;;;;;5051385;28;20024;-43
2022/07/27 01:42:32;;;;;;;0.85;0.85;;;27.30;47.70;;;;;;5050132;28;20037;-44
2022/07/27 01:44:58;;;;;;;1.40;0.85;;;27.30;47.60;;;;;;5047927;28;20375;-44
2022/07/27 01:47:25;;;;;;;1.30;0.90;;;27.30;48.50;;;;;;5049682;28;20033;-43
2022/07/27 01:49:51;;;;;;;1.20;0.90;;;27.30;47.80;;;;;;5051211;28;20029;-44
2022/07/27 01:52:17;;;;;;;2.17;1.25;;;27.30;47.70;;;;;;5050876;28;20477;-53
2022/07/27 01:54:42;;;;;;;1.23;1.10;;;27.30;47.80;;;;;;5050013;28;20037;-46
2022/07/27 01:57:08;;;;;;;1.25;0.80;;;27.30;47.80;;;;;;5051073;28;20493;-44
2022/07/27 01:59:33;;;;;;;1.50;0.95;;;27.30;48.00;;;;;;5048974;28;20040;-46
2022/07/27 02:01:59;;;;;;;3.53;1.10;;;27.30;47.70;;;;;;5045101;28;20036;-49
2022/07/27 02:04:25;;;;;;;1.50;0.90;;;27.30;47.70;;;;;;5049706;28;20516;-43
2022/07/27 02:06:50;;;;;;;1.63;0.98;;;27.30;47.80;;;;;;5050201;28;20029;-43
2022/07/27 02:09:16;;;;;;;1.48;1.00;;;27.30;47.60;;;;;;5049700;28;20037;-53
2022/07/27 02:14:25;;;;;;;1.23;0.90;;;27.30;47.70;;;;;;5054390;28;20091;-43
2022/07/27 02:16:51;;;;;;;2.72;1.15;;;27.30;47.70;;;;;;5054106;28;20036;-43
2022/07/27 02:19:17;;;;;;;1.05;1.00;;;27.30;47.60;;;;;;5054653;28;20108;-53
2022/07/27 02:21:43;;;;;;;1.50;0.98;;;27.30;47.60;;;;;;5049266;28;20036;-43
2022/07/27 02:24:08;;;;;;;2.55;0.90;;;27.30;47.60;;;;;;5055039;28;20025;-43
2022/07/27 02:26:34;;;;;;;1.45;1.20;;;27.30;47.70;;;;;;5054869;28;20028;-43
2022/07/27 02:29:00;;;;;;;1.75;1.10;;;27.30;47.70;;;;;;5054615;28;20055;-43
2022/07/27 02:31:25;;;;;;;1.20;1.10;;;27.30;47.60;;;;;;5054310;28;20382;-43
2022/07/27 02:33:51;;;;;;;2.20;1.15;;;27.30;47.40;;;;;;5054394;28;20033;-43
2022/07/27 02:36:16;;;;;;;1.75;1.10;;;27.30;47.50;;;;;;5053347;28;20032;-44
2022/07/27 02:38:42;;;;;;;2.10;0.98;;;27.30;47.70;;;;;;5056156;28;20464;-45
2022/07/27 02:41:08;;;;;;;1.40;1.25;;;27.30;47.60;;;;;;5054683;28;20025;-43
2022/07/27 02:43:33;;;;;;;1.50;1.00;;;27.30;47.70;;;;;;5053892;28;20037;-45
2022/07/27 02:45:59;;;;;;;2.85;1.13;;;27.30;47.70;;;;;;5052704;28;20021;-44
2022/07/27 02:48:24;;;;;;;1.75;1.40;;;27.30;47.60;;;;;;5053945;28;20032;-43
2022/07/27 02:50:50;;;;;;;0.90;0.90;;;27.30;47.60;;;;;;5054582;28;20052;-44
2022/07/27 02:53:16;;;;;;;0.80;0.80;;;27.30;47.60;;;;;;5054475;28;20032;-43
2022/07/27 02:55:41;;;;;;;1.63;1.00;;;27.30;47.60;;;;;;5049943;28;20112;-53
2022/07/27 02:58:07;;;;;;;1.38;1.10;;;27.30;47.60;;;;;;5051875;28;20087;-44
2022/07/27 03:00:33;;;;;;;1.52;1.08;;;27.30;47.60;;;;;;5053831;28;20040;-43
2022/07/27 03:02:58;;;;;;;1.83;1.20;;;27.30;47.40;;;;;;5054233;28;20041;-43
2022/07/27 03:05:24;;;;;;;1.55;0.90;;;27.30;47.50;;;;;;5048785;28;20444;-54
2022/07/27 03:07:49;;;;;;;1.50;1.02;;;27.30;47.60;;;;;;5053644;28;21318;-44
2022/07/27 03:10:15;;;;;;;1.50;1.00;;;27.30;47.40;;;;;;5052569;28;20478;-44
2022/07/27 03:12:42;;;;;;;1.52;1.20;;;27.30;47.40;;;;;;5055735;28;20043;-43
2022/07/27 03:15:09;;;;;;;1.90;1.33;;;27.30;47.60;;;;;;5051962;28;20048;-43
2022/07/27 03:17:34;;;;;;;2.55;1.20;;;27.30;47.50;;;;;;5051221;28;20037;-43
2022/07/27 03:20:00;;;;;;;2.45;1.40;;;27.30;47.60;;;;;;5052719;28;20029;-43
2022/07/27 03:22:29;;;;;;;2.03;1.00;;;27.30;47.50;;;;;;5035117;28;20029;-43
2022/07/27 03:24:55;;;;;;;2.17;1.20;;;27.30;47.50;;;;;;5052856;28;20037;-44
2022/07/27 03:27:20;;;;;;;1.80;1.17;;;27.30;47.50;;;;;;5051226;28;20028;-54
2022/07/27 03:29:46;;;;;;;1.60;1.20;;;27.30;47.50;;;;;;5044394;28;20429;-44
2022/07/27 03:32:12;;;;;;;1.10;1.00;;;27.30;47.60;;;;;;5052350;28;20021;-45
2022/07/27 03:34:37;;;;;;;3.33;1.00;;;27.30;47.60;;;;;;5051717;28;20045;-43
2022/07/27 03:37:03;;;;;;;2.83;1.42;;;27.30;47.40;;;;;;5051195;28;20040;-44
2022/07/27 03:39:28;;;;;;;1.63;1.00;;;27.30;47.40;;;;;;5051621;28;20033;-43
2022/07/27 03:41:54;;;;;;;2.05;0.98;;;27.30;47.40;;;;;;5052041;28;20028;-44
2022/07/27 03:44:19;;;;;;;1.90;1.00;;;27.30;47.40;;;;;;5052463;28;20112;-44
2022/07/27 03:46:45;;;;;;;1.65;1.20;;;27.30;47.50;;;;;;5048460;28;20036;-43
2022/07/27 03:49:11;;;;;;;1.00;0.90;;;27.30;47.50;;;;;;5052653;28;20027;-43
2022/07/27 03:51:36;;;;;;;1.60;1.17;;;27.30;47.50;;;;;;5051187;28;20024;-44
2022/07/27 03:54:02;;;;;;;1.55;1.42;;;27.30;47.50;;;;;;5052273;28;20112;-44
2022/07/27 03:56:28;;;;;;;1.20;0.85;;;27.20;47.30;;;;;;5050431;28;20041;-47
2022/07/27 03:58:54;;;;;;;1.90;1.23;;;27.30;47.40;;;;;;5047479;28;20025;-51
2022/07/27 04:01:19;;;;;;;1.15;0.95;;;27.30;47.40;;;;;;5049471;28;20476;-44
2022/07/27 04:03:45;;;;;;;2.22;1.30;;;27.30;47.30;;;;;;5053119;28;20032;-43
2022/07/27 04:06:11;;;;;;;2.47;1.10;;;27.30;47.30;;;;;;5051369;28;20029;-43
2022/07/27 04:08:36;;;;;;;6.40;1.52;;;27.20;47.20;;;;;;5012786;28;1105192;-43
2022/07/27 04:11:02;;;;;;;2.92;1.40;;;27.30;47.20;;;;;;5037944;28;20143;-43
2022/07/27 04:13:27;;;;;;;2.95;1.10;;;27.30;47.40;;;;;;5052037;28;20401;-53
2022/07/27 04:15:56;;;;;;;1.42;1.10;;;27.30;47.30;;;;;;5051147;28;20031;-43
2022/07/27 04:18:22;;;;;;;2.22;1.30;;;27.30;47.30;;;;;;5048675;28;20402;-44
2022/07/27 04:20:48;;;;;;;3.05;1.23;;;27.30;47.30;;;;;;5052033;28;20052;-47
2022/07/27 04:23:13;;;;;;;1.30;1.20;;;27.30;47.20;;;;;;5053063;28;20079;-43
2022/07/27 04:25:39;;;;;;;1.63;1.10;;;27.30;47.30;;;;;;5052063;28;20501;-44
2022/07/27 04:28:05;;;;;;;2.13;1.08;;;27.20;47.30;;;;;;5034495;28;20462;-43
2022/07/27 04:30:31;;;;;;;1.75;1.20;;;27.20;47.20;;;;;;5045865;28;20090;-43
2022/07/27 04:32:57;;;;;;;1.95;1.10;;;27.30;47.30;;;;;;5052672;28;20032;-44
2022/07/27 04:35:22;;;;;;;1.92;1.02;;;27.20;47.30;;;;;;5046648;28;20032;-43
2022/07/27 04:37:48;;;;;;;2.17;1.17;;;27.20;47.40;;;;;;5051801;28;20047;-43
2022/07/27 04:40:14;;;;;;;2.35;1.20;;;27.30;47.40;;;;;;5052606;28;20071;-44
2022/07/27 04:42:39;;;;;;;1.30;1.13;;;27.30;47.40;;;;;;5051695;28;20075;-43
2022/07/27 04:45:06;;;;;;;2.15;1.30;;;27.20;47.40;;;;;;5050326;28;20040;-43
2022/07/27 04:47:31;;;;;;;1.38;1.05;;;27.20;47.30;;;;;;5044867;28;20398;-43
2022/07/27 04:49:57;;;;;;;1.25;0.90;;;27.30;47.40;;;;;;5052453;28;20028;-44
2022/07/27 04:52:23;;;;;;;1.88;1.30;;;27.30;47.50;;;;;;5049411;28;20075;-43
2022/07/27 04:54:53;;;;;;;1.25;1.02;;;27.20;47.40;;;;;;5050208;28;20090;-43
2022/07/27 04:57:19;;;;;;;2.03;1.20;;;27.20;47.40;;;;;;5051524;28;20029;-43
2022/07/27 04:59:45;;;;;;;1.50;1.13;;;27.30;47.40;;;;;;5051165;28;20836;-45
2022/07/27 05:02:11;;;;;;;1.20;1.10;;;27.20;47.50;;;;;;5051320;28;20029;-43
2022/07/27 05:04:36;;;;;;;1.67;1.17;;;27.20;47.40;;;;;;5032024;28;20040;-43
2022/07/27 05:07:02;;;;;;;1.38;1.10;;;27.20;47.40;;;;;;5051681;28;20040;-43
2022/07/27 05:09:28;;;;;;;1.13;1.02;;;27.30;47.40;;;;;;5045604;28;20100;-54
2022/07/27 05:11:54;;;;;;;1.60;1.10;;;27.30;47.50;;;;;;5051247;28;20047;-43
2022/07/27 05:14:20;;;;;;;1.38;1.13;;;27.20;47.40;;;;;;5050625;28;20111;-45
2022/07/27 05:16:45;;;;;;;10.40;1.40;;;27.20;47.50;;;;;;5051617;28;20068;-43
2022/07/27 05:19:11;;;;;;;1.35;1.17;;;27.20;47.50;;;;;;5052186;28;20063;-43
2022/07/27 05:21:37;;;;;;;2.03;1.40;;;27.30;47.60;;;;;;5051314;28;20361;-43
2022/07/27 05:24:03;;;;;;;3.05;1.33;;;27.20;47.50;;;;;;5050981;28;20037;-43
2022/07/27 05:26:29;;;;;;;1.02;0.88;;;27.20;47.50;;;;;;5052906;28;20068;-52
2022/07/27 05:28:54;;;;;;;1.90;1.10;;;27.20;47.50;;;;;;5050893;28;20110;-43
2022/07/27 05:31:20;;;;;;;1.10;1.00;;;27.30;47.60;;;;;;5051004;28;20025;-44
2022/07/27 05:33:45;;;;;;;1.52;1.10;;;27.20;47.50;;;;;;5050030;28;20033;-44
2022/07/27 05:36:11;;;;;;;1.63;1.52;;;27.20;47.50;;;;;;5049675;28;20131;-43
2022/07/27 05:38:38;;;;;;;1.98;1.50;;;27.20;47.60;;;;;;5051173;28;20107;-43
2022/07/27 05:41:06;;;;;;;3.60;1.50;;;27.10;46.70;;;;;;5051986;28;20079;-43
2022/07/27 05:43:32;;;;;;;3.20;1.63;;;26.80;45.60;;;;;;5046922;28;20506;-51
2022/07/27 05:45:58;;;;;;;3.00;1.70;;;26.50;45.80;;;;;;5050095;28;20025;-42
2022/07/27 05:48:24;;;;;;;3.65;1.73;;;26.40;46.00;;;;;;5050896;28;20029;-46
2022/07/27 05:50:49;;;;;;;4.32;1.67;;;26.30;46.20;;;;;;5050532;28;20013;-43
2022/07/27 05:53:15;;;;;;;3.25;1.70;;;26.30;46.40;;;;;;5051211;28;20061;-43
2022/07/27 05:55:40;;;;;;;4.40;1.80;;;26.30;46.50;;;;;;5049555;28;20449;-44
2022/07/27 05:58:06;;;;;;;6.55;2.22;;;26.30;46.00;;;;;;5032279;28;20033;-44
2022/07/27 06:00:32;;;;;;;2.85;1.70;;;26.20;46.30;;;;;;5045709;28;20430;-52
2022/07/27 06:02:57;;;;;;;3.17;2.20;;;26.10;46.70;;;;;;5048799;28;20025;-45
2022/07/27 06:05:23;;;;;;;2.92;1.75;;;26.00;47.00;;;;;;5046286;28;20038;-44
2022/07/27 06:07:58;;;;;;;3.15;1.42;;;26.00;47.00;;;;;;5051110;28;20029;-43
2022/07/27 06:10:28;;;;;;;1.80;1.60;;;25.90;47.10;;;;;;5053353;28;20033;-43
2022/07/27 06:12:54;;;;;;;2.35;1.45;;;25.80;47.30;;;;;;5054666;28;20033;-44
2022/07/27 06:15:20;;;;;;;3.38;1.90;;;25.80;47.40;;;;;;5049071;28;20043;-43
2022/07/27 06:17:47;;;;;;;1.90;1.48;;;25.80;47.70;;;;;;5058045;28;20429;-44
2022/07/27 06:20:13;;;;;;;2.45;1.70;;;25.70;47.70;;;;;;5050580;28;20099;-43
2022/07/27 06:22:49;;;;;;;3.53;1.70;;;25.70;47.80;;;;;;5049896;28;20538;-43
2022/07/27 06:25:16;;;;;;;2.00;1.55;;;25.70;47.80;;;;;;5049673;28;20036;-44
2022/07/27 06:27:42;;;;;;;2.25;1.60;;;25.60;47.80;;;;;;5049236;28;20095;-44
2022/07/27 06:30:08;;;;;;;2.03;1.60;;;25.60;48.00;;;;;;5049537;28;20079;-43
2022/07/27 06:32:34;;;;;;;2.53;1.67;;;25.60;47.90;;;;;;5048547;28;20033;-54
2022/07/27 06:35:01;;;;;;;2.08;1.40;;;25.60;47.90;;;;;;5051094;28;20223;-45
2022/07/27 06:37:28;;;;;;;1.73;1.58;;;25.60;47.90;;;;;;5051034;28;20083;-44
2022/07/27 06:39:54;;;;;;;2.42;1.52;;;25.60;48.10;;;;;;5050283;28;20224;-50
2022/07/27 06:42:19;;;;;;;4.43;1.52;;;25.50;48.20;;;;;;5049519;28;20430;-44
2022/07/27 06:44:45;;;;;;;5.20;1.77;;;25.50;48.30;;;;;;5053314;28;20035;-43
2022/07/27 06:47:11;;;;;;;2.72;1.60;;;25.60;48.30;;;;;;5048224;28;20033;-47
2022/07/27 06:49:36;;;;;;;3.10;2.13;;;25.50;48.30;;;;;;5055598;28;20025;-44
2022/07/27 06:52:02;;;;;;;2.10;1.63;;;25.50;48.90;;;;;;5050811;28;20025;-44
2022/07/27 06:54:28;;;;;;;2.42;1.48;;;25.50;48.40;;;;;;5051681;28;20044;-44
2022/07/27 06:56:53;;;;;;;3.97;1.40;;;25.50;48.40;;;;;;5055756;28;20050;-44
2022/07/27 06:59:19;;;;;;;7.32;2.40;;;25.50;48.50;;;;;;5053570;28;20029;-45
2022/07/27 07:01:44;;;;;;;4.68;1.55;;;25.40;48.50;;;;;;5055906;28;20059;-44
2022/07/27 07:04:10;;;;;;;3.55;1.70;;;25.50;48.60;;;;;;5053487;28;20028;-44
2022/07/27 07:06:36;;;;;;;1.80;1.30;;;25.40;48.50;;;;;;5050712;28;20025;-53
2022/07/27 07:09:02;;;;;;;2.28;1.30;;;25.40;48.80;;;;;;5051125;28;21221;-44
2022/07/27 07:11:27;;;;;;;2.17;1.73;;;25.40;48.60;;;;;;5053318;28;20041;-42
2022/07/27 07:13:53;;;;;;;2.08;1.30;;;25.40;48.60;;;;;;5049159;28;20040;-52
2022/07/27 07:16:18;;;;;;;3.25;1.42;;;25.40;48.60;;;;;;5053763;28;20120;-44
2022/07/27 07:18:44;;;;;;;5.70;2.03;;;25.50;48.80;;;;;;5053409;28;20048;-48
2022/07/27 07:21:10;;;;;;;3.90;1.63;;;25.50;48.60;;;;;;5053072;28;20025;-43
2022/07/27 07:23:35;;;;;;;4.50;1.60;;;25.50;48.80;;;;;;5051499;28;20493;-52
2022/07/27 07:26:01;;;;;;;2.58;1.75;;;25.50;48.60;;;;;;5053557;28;20075;-43
2022/07/27 07:28:27;;;;;;;3.67;1.70;;;25.40;48.60;;;;;;5049975;28;20033;-43
2022/07/27 07:30:52;;;;;;;2.83;1.60;;;25.40;48.70;;;;;;5052064;28;20050;-43
2022/07/27 07:33:18;;;;;;;2.95;1.90;;;25.40;48.80;;;;;;5053846;28;20056;-44
2022/07/27 07:35:44;;;;;;;3.60;1.60;;;25.50;49.40;;;;;;5051559;28;20039;-42
2022/07/27 07:38:09;;;;;;;4.55;1.83;;;25.50;48.70;;;;;;5052125;28;20082;-43
2022/07/27 07:40:36;;;;;;;2.58;1.70;;;25.50;48.70;;;;;;5046371;28;20075;-53
2022/07/27 07:43:03;;;;;;;8.57;2.83;;;25.50;48.50;;;;;;5051800;28;20024;-45
2022/07/27 07:45:32;;;;;;;2.45;1.70;;;25.50;48.50;;;;;;5052912;28;20047;-43
2022/07/27 07:47:58;;;;;;;2.70;1.92;;;25.50;48.60;;;;;;5051966;28;20029;-42
2022/07/27 07:50:24;;;;;;;2.75;1.75;;;25.50;48.60;;;;;;5052883;28;20029;-43
2022/07/27 07:52:51;;;;;;;2.95;1.65;;;25.50;48.70;;;;;;5034289;28;20551;-43
2022/07/27 07:55:22;;;;;;;3.17;1.55;;;25.50;48.70;;;;;;5051828;28;20683;-48
2022/07/27 07:57:48;;;;;;;4.30;1.73;;;25.50;48.60;;;;;;5051792;28;20055;-45
2022/07/27 08:00:14;;;;;;;3.00;1.52;;;25.50;48.60;;;;;;5052812;28;20033;-44
2022/07/27 08:02:47;;;;;;;3.60;1.80;;;25.50;48.70;;;;;;5051685;28;20033;-43
2022/07/27 08:05:14;;;;;;;4.65;1.63;;;25.50;48.70;;;;;;5052286;28;20029;-43
2022/07/27 08:07:41;;;;;;;3.08;2.00;;;25.50;48.90;;;;;;5051547;28;20104;-44
2022/07/27 08:10:08;;;;;;;3.78;2.03;;;25.60;48.80;;;;;;5051364;28;20033;-44
2022/07/27 08:12:35;;;;;;;3.53;1.50;;;25.60;48.90;;;;;;5052114;28;20056;-43
2022/07/27 08:15:00;;;;;;;4.20;2.10;;;25.60;48.70;;;;;;5047638;28;20037;-44
2022/07/27 08:17:26;;;;;;;2.95;1.80;;;25.50;48.70;;;;;;5052319;28;20027;-43
2022/07/27 08:19:51;;;;;;;4.28;1.88;;;25.50;48.60;;;;;;5050705;28;20039;-44
2022/07/27 08:22:17;;;;;;;5.57;1.98;;;25.50;48.80;;;;;;5052643;28;20036;-44
2022/07/27 08:24:43;;;;;;;2.20;1.67;;;25.60;48.70;;;;;;5051640;28;20437;-45
2022/07/27 08:27:09;;;;;;;5.70;2.03;;;25.60;48.70;;;;;;5054750;28;20025;-43
2022/07/27 08:29:34;;;;;;;3.65;2.10;;;25.60;48.80;;;;;;5051563;28;20488;-49
2022/07/27 08:32:00;;;;;;;2.70;1.63;;;25.50;48.70;;;;;;5051427;28;20036;-44
2022/07/27 08:34:25;;;;;;;3.60;1.60;;;25.60;49.00;;;;;;5052057;28;20455;-43
2022/07/27 08:36:51;;;;;;;3.75;1.92;;;25.60;49.10;;;;;;5050994;28;20043;-44
2022/07/27 08:39:17;;;;;;;2.25;1.58;;;25.60;49.00;;;;;;5052151;28;20024;-44
2022/07/27 08:41:43;;;;;;;5.35;1.70;;;25.60;48.80;;;;;;5051161;28;20079;-43
2022/07/27 08:44:13;;;;;;;3.28;1.70;;;25.60;49.00;;;;;;5051256;28;20100;-44
2022/07/27 08:46:41;;;;;;;2.88;1.75;;;25.60;48.90;;;;;;5051018;28;20047;-54
2022/07/27 08:49:07;;;;;;;3.20;1.80;;;25.60;49.10;;;;;;5051810;28;20021;-45
2022/07/27 08:51:33;;;;;;;3.30;1.77;;;25.70;49.20;;;;;;5050705;28;20098;-47
2022/07/27 08:53:59;;;;;;;4.03;1.95;;;25.70;48.40;;;;;;5050694;28;20481;-44
2022/07/27 08:56:26;;;;;;;3.08;2.20;;;25.70;48.30;;;;;;5051854;28;20496;-42
2022/07/27 08:58:52;;;;;;;4.88;1.92;;;25.60;48.30;;;;;;5050290;28;20474;-47
2022/07/27 09:01:18;;;;;;;3.22;2.08;;;25.60;48.40;;;;;;5033454;28;20102;-42
2022/07/27 09:03:43;;;;;;;3.85;2.03;;;25.60;48.70;;;;;;5050396;28;20028;-44
2022/07/27 09:06:09;;;;;;;2.55;2.10;;;25.60;48.70;;;;;;5051268;28;20025;-43
2022/07/27 09:08:37;;;;;;;2.13;1.35;;;25.70;48.80;;;;;;5050775;28;20053;-49
2022/07/27 09:11:13;;;;;;;2.60;1.75;;;25.70;48.90;;;;;;5050737;28;20086;-43
2022/07/27 09:13:42;;;;;;;3.10;1.70;;;25.70;48.70;;;;;;5049855;28;20029;-54
2022/07/27 09:16:09;;;;;;;1.65;1.50;;;25.70;48.60;;;;;;5051579;28;20045;-43
2022/07/27 09:18:36;;;;;;;4.30;1.52;;;25.70;48.30;;;;;;5051013;28;20162;-43
2022/07/27 09:21:19;;;;;;;3.95;2.10;;;25.80;48.60;;;;;;5049670;28;20033;-43
2022/07/27 09:24:13;;;;;;;2.22;2.00;;;25.80;48.40;;;;;;5050027;28;20025;-43
2022/07/27 09:26:39;;;;;;;3.60;1.58;;;25.80;48.20;;;;;;5044205;28;20037;-53
2022/07/27 09:29:14;;;;;;;3.30;2.08;;;25.80;48.60;;;;;;5050627;28;20025;-44
2022/07/27 09:31:45;;;;;;;4.88;2.10;;;25.80;48.80;;;;;;5049659;28;20048;-54
2022/07/27 09:34:12;;;;;;;2.50;1.73;;;25.80;48.80;;;;;;5050643;28;20409;-43
2022/07/27 09:36:52;;;;;;;3.45;1.88;;;25.90;48.80;;;;;;5050664;28;20083;-44
2022/07/27 09:39:22;;;;;;;4.13;1.67;;;25.90;48.50;;;;;;5049990;28;20079;-44
2022/07/27 09:41:48;;;;;;;3.47;1.70;;;25.90;48.30;;;;;;5049774;28;20049;-46
2022/07/27 09:44:14;;;;;;;6.03;1.70;;;25.90;48.30;;;;;;5051044;28;20040;-44
2022/07/27 09:46:42;;;;;;;1.90;1.58;;;25.90;48.50;;;;;;5050154;28;20029;-53
2022/07/27 09:49:30;;;;;;;5.97;1.70;;;25.90;48.50;;;;;;5051194;28;20110;-43
2022/07/27 09:51:57;;;;;;;3.20;1.83;;;25.90;48.00;;;;;;5031463;28;20033;-43
2022/07/27 09:54:23;;;;;;;3.63;2.00;;;25.90;47.70;;;;;;5055532;28;20071;-43
2022/07/27 09:57:02;;;;;;;3.20;2.00;;;25.90;48.60;;;;;;5049819;28;20040;-45
2022/07/27 09:59:29;;;;;;;3.85;2.42;;;26.00;48.40;;;;;;5048906;28;20044;-46
2022/07/27 10:01:55;;;;;;;3.95;1.73;;;25.90;48.50;;;;;;5049088;28;20481;-47
2022/07/27 10:04:22;;;;;;;3.45;1.92;;;25.90;48.50;;;;;;5050893;28;20064;-45
2022/07/27 10:06:49;;;;;;;6.82;2.15;;;25.90;48.20;;;;;;5050105;28;20061;-46
2022/07/27 10:09:16;;;;;;;4.43;2.05;;;25.90;47.80;;;;;;5049571;28;20045;-47
2022/07/27 10:11:42;;;;;;;4.30;1.98;;;25.90;48.10;;;;;;5046039;28;20375;-53
2022/07/27 10:14:08;;;;;;;3.88;1.63;;;25.90;48.20;;;;;;5049908;28;20040;-44
2022/07/27 10:16:35;;;;;;;2.83;1.70;;;25.90;48.50;;;;;;5050821;28;20044;-47
2022/07/27 10:19:14;;;;;;;3.70;1.75;;;25.90;48.90;;;;;;5049853;28;20206;-46
2022/07/27 10:21:46;;;;;;;2.75;1.98;;;26.00;48.90;;;;;;5046322;28;20048;-43
2022/07/27 10:24:23;;;;;;;2.45;1.80;;;25.90;48.60;;;;;;5050039;28;20504;-45
2022/07/27 10:26:49;;;;;;;5.13;2.20;;;25.90;48.70;;;;;;5054781;28;20393;-44
2022/07/27 10:29:17;;;;;;;4.90;2.00;;;26.00;48.80;;;;;;5050134;28;20029;-43
2022/07/27 10:31:56;;;;;;;4.13;1.83;;;26.10;48.50;;;;;;5050087;28;20025;-53
2022/07/27 10:34:42;;;;;;;6.05;2.63;;;26.10;48.40;;;;;;5054595;28;20029;-43
2022/07/27 10:37:13;;;;;;;3.15;1.83;;;26.10;48.40;;;;;;5053361;28;20098;-43
2022/07/27 10:39:44;;;;;;;5.38;2.00;;;26.20;48.20;;;;;;5054483;28;20074;-43
2022/07/27 10:42:30;;;;;;;2.78;1.60;;;26.10;47.60;;;;;;5050564;28;20032;-51
2022/07/27 10:45:08;;;;;;;3.55;2.03;;;26.00;47.50;;;;;;5053595;28;20107;-44
2022/07/27 10:47:49;;;;;;;2.95;1.83;;;26.10;47.60;;;;;;5052699;28;20100;-43
2022/07/27 10:50:14;;;;;;;3.72;1.90;;;26.10;47.50;;;;;;5053750;28;20540;-47
2022/07/27 10:52:44;;;;;;;1.90;1.70;;;26.10;47.20;;;;;;5054165;28;20025;-44
2022/07/27 10:55:31;;;;;;;2.20;1.42;;;26.20;47.20;;;;;;5053108;28;20029;-44
2022/07/27 10:58:01;;;;;;;3.92;1.52;;;26.20;46.50;;;;;;5052990;28;20027;-46
2022/07/27 11:00:48;;;;;;;2.75;1.73;;;26.30;46.20;;;;;;5035759;28;20371;-42
2022/07/27 11:03:33;;;;;;;2.15;1.77;;;26.30;46.00;;;;;;5052225;28;20032;-44
2022/07/27 11:06:01;;;;;;;2.28;1.75;;;26.30;46.20;;;;;;5052918;28;20037;-43
2022/07/27 11:08:29;;;;;;;3.10;1.85;;;26.30;45.90;;;;;;5053268;28;20049;-44
2022/07/27 11:10:55;;;;;;;4.40;2.17;;;26.30;46.10;;;;;;5053068;28;20075;-43
2022/07/27 11:13:22;;;;;;;2.63;1.45;;;26.30;46.50;;;;;;5054544;28;20083;-48
2022/07/27 11:15:59;;;;;;;1.65;1.50;;;26.30;46.80;;;;;;5055459;28;20119;-52
2022/07/27 11:18:36;;;;;;;3.30;1.60;;;26.40;46.90;;;;;;5051670;28;20041;-44
2022/07/27 11:21:29;;;;;;;4.25;1.45;;;26.40;46.10;;;;;;5052204;28;20060;-43
2022/07/27 11:24:04;;;;;;;1.40;1.30;;;26.40;45.60;;;;;;5046783;28;20039;-50
2022/07/27 11:26:38;;;;;;;2.25;1.30;;;26.40;45.00;;;;;;5052051;28;20116;-48
2022/07/27 11:29:07;;;;;;;2.30;1.38;;;26.30;45.30;;;;;;5054977;28;20108;-44
2022/07/27 11:31:34;;;;;;;2.00;1.65;;;26.30;45.30;;;;;;5050634;28;20377;-45
2022/07/27 11:34:00;;;;;;;1.95;1.23;;;26.40;45.30;;;;;;5054216;28;20037;-46
2022/07/27 11:36:49;;;;;;;1.65;1.55;;;26.40;45.10;;;;;;5054887;28;20025;-46
2022/07/27 11:39:25;;;;;;;2.45;1.27;;;26.40;45.40;;;;;;5052272;28;20040;-44
2022/07/27 11:41:56;;;;;;;4.97;1.48;;;26.40;45.60;;;;;;5051657;28;20024;-44
2022/07/27 11:44:22;;;;;;;2.90;1.60;;;26.30;45.50;;;;;;5052540;28;20036;-42
2022/07/27 11:46:49;;;;;;;1.60;1.45;;;26.40;45.40;;;;;;5052702;28;20033;-51
2022/07/27 11:49:25;;;;;;;2.55;1.88;;;26.40;45.10;;;;;;5052846;28;20037;-44
2022/07/27 11:51:52;;;;;;;3.25;1.40;;;26.50;44.70;;;;;;5052184;28;20068;-48
2022/07/27 11:54:30;;;;;;;1.75;1.65;;;26.50;44.60;;;;;;5051364;28;20033;-47
2022/07/27 11:57:04;;;;;;;3.53;1.40;;;26.60;44.20;;;;;;5052912;28;20037;-49
2022/07/27 11:59:34;;;;;;;2.00;1.27;;;26.60;44.10;;;;;;5051210;28;20066;-45
2022/07/27 12:02:16;;;;;;;3.70;1.43;;;26.60;44.30;;;;;;5054339;28;20029;-44
2022/07/27 12:04:51;;;;;;;;;;;26.70;45.60;;;;;;5049427;28;20025;-45
2022/07/27 12:07:22;;;;;;;3.55;1.60;;;26.80;44.50;;;;;;5052824;28;19909;-48
2022/07/27 12:09:48;;;;;;;;;;;26.70;43.70;;;;;;5047422;28;20045;-54
2022/07/27 12:12:22;;;;;;;2.50;1.50;;;26.60;44.00;;;;;;5051746;28;19991;-46
2022/07/27 12:14:55;;;;;;;2.15;1.25;;;26.60;44.70;;;;;;5052205;28;20068;-53
2022/07/27 12:17:30;;;;;;;2.70;1.50;;;26.60;44.00;;;;;;5052258;28;20413;-45
2022/07/27 12:20:08;;;;;;;3.05;1.50;;;26.60;43.90;;;;;;5048292;28;20032;-44
2022/07/27 12:22:39;;;;;;;3.17;1.48;;;26.50;43.90;;;;;;5052369;28;20029;-46
2022/07/27 12:25:28;;;;;;;2.60;1.10;;;26.60;43.80;;;;;;5051654;28;20057;-44
2022/07/27 12:28:03;;;;;;;1.80;1.13;;;26.60;43.80;;;;;;5046707;28;20098;-44
2022/07/27 12:30:30;;;;;;;1.58;1.20;;;26.70;43.90;;;;;;5052116;28;20029;-48
2022/07/27 12:32:56;;;;;;;2.55;1.70;;;26.60;43.10;;;;;;5050451;28;20033;-44
2022/07/27 12:35:27;;;;;;;2.72;1.20;;;26.70;43.40;;;;;;5051958;28;20033;-44
2022/07/27 12:37:58;;;;;;;5.50;1.45;;;26.80;43.70;;;;;;5051395;28;20068;-44
2022/07/27 12:40:24;;;;;;;1.08;1.00;;;26.80;43.60;;;;;;5051361;28;20078;-47
2022/07/27 12:43:17;;;;;;;1.20;1.10;;;26.80;42.80;;;;;;5051667;28;20032;-54
2022/07/27 12:45:43;;;;;;;1.55;1.25;;;26.70;42.60;;;;;;5048347;28;20494;-42
2022/07/27 12:48:18;;;;;;;3.42;1.63;;;26.70;42.20;;;;;;5050861;28;20085;-43
2022/07/27 12:50:47;;;;;;;3.17;1.10;;;26.70;42.00;;;;;;5051779;28;20470;-44
2022/07/27 12:53:14;;;;;;;2.47;1.20;;;26.60;41.60;;;;;;5051025;28;20026;-44
2022/07/27 12:55:41;;;;;;;2.47;0.98;;;26.70;42.00;;;;;;5050677;28;20040;-45
2022/07/27 12:58:13;;;;;;;2.65;1.00;;;26.70;42.00;;;;;;5049842;28;20621;-45